createdAt,value
2023-03-29T00:05:00.082Z,-1.6
2023-03-29T00:10:36.053Z,-1.7
2023-03-29T00:16:27.589Z,-1.8
2023-03-29T00:22:19.433Z,-1.8
2023-03-29T00:28:11.509Z,-1.8
2023-03-29T00:33:48.244Z,-1.9
2023-03-29T00:39:40.016Z,-1.9
2023-03-29T00:45:01.122Z,-2
2023-03-29T00:50:22.154Z,-2
2023-03-29T00:55:58.592Z,-2.1
2023-03-29T01:01:35.121Z,-2.1
2023-03-29T01:07:11.848Z,-2.2
2023-03-29T01:12:32.026Z,-2.3
2023-03-29T01:18:08.735Z,-2.3
2023-03-29T01:23:59.885Z,-2.3
2023-03-29T01:29:51.023Z,-2.3
2023-03-29T01:35:43.017Z,-2.4
2023-03-29T01:41:34.839Z,-2.4
2023-03-29T01:46:55.167Z,-2.4
2023-03-29T01:52:32.172Z,-2.4
2023-03-29T01:58:23.989Z,-2.5
2023-03-29T02:04:00.795Z,-2.5
2023-03-29T02:09:52.424Z,-2.6
2023-03-29T02:15:44.405Z,-2.6
2023-03-29T02:21:20.946Z,-2.6
2023-03-29T02:26:57.550Z,-2.6
2023-03-29T02:32:49.617Z,-2.6
2023-03-29T02:38:25.544Z,-2.6
2023-03-29T02:44:03.960Z,-2.7
2023-03-29T02:49:25.343Z,-2.7
2023-03-29T02:55:17.034Z,-2.7
2023-03-29T03:01:08.957Z,-2.8
2023-03-29T03:06:45.386Z,-2.7
2023-03-29T03:12:36.287Z,-2.7
2023-03-29T03:18:31.762Z,-2.7
2023-03-29T03:24:08.578Z,-2.7
2023-03-29T03:29:44.590Z,-2.8
2023-03-29T03:35:36.884Z,-2.7
2023-03-29T03:41:13.682Z,-2.8
2023-03-29T03:46:38.047Z,-2.8
2023-03-29T03:51:59.388Z,-2.8
2023-03-29T03:57:51.091Z,-2.8
2023-03-29T04:03:28.196Z,-2.8
2023-03-29T04:09:20.523Z,-2.8
2023-03-29T04:14:57.268Z,-2.8
2023-03-29T04:20:50.844Z,-2.8
2023-03-29T04:26:42.629Z,-2.8
2023-03-29T04:32:34.992Z,-2.8
2023-03-29T04:38:28.988Z,-2.8
2023-03-29T04:44:07.209Z,-2.7
2023-03-29T04:49:44.040Z,-2.6
2023-03-29T04:55:34.825Z,-2.4
2023-03-29T05:01:29.262Z,-2.3
2023-03-29T05:07:20.821Z,-2.1
2023-03-29T05:13:14.761Z,-1.7
2023-03-29T05:19:07.430Z,-1.2
2023-03-29T05:24:58.965Z,-0.4
2023-03-29T05:30:49.681Z,0.4
2023-03-29T05:36:26.184Z,1.4
2023-03-29T05:41:54.277Z,2.6
2023-03-29T05:47:31.160Z,4.1
2023-03-29T05:53:07.921Z,5.6
2023-03-29T05:59:00.124Z,6.8
2023-03-29T06:05:04.532Z,7.4
2023-03-29T06:10:56.759Z,8
2023-03-29T06:16:48.869Z,9.3
2023-03-29T06:22:40.353Z,11.5
2023-03-29T06:28:32.998Z,14.7
2023-03-29T06:34:27.411Z,16.8
2023-03-29T06:39:48.465Z,17.4
2023-03-29T06:45:52.997Z,17.8
2023-03-29T06:57:20.532Z,20.7
2023-03-29T07:02:57.110Z,36.5
2023-03-29T07:08:18.832Z,33.4
2023-03-29T07:14:11.069Z,31.3
2023-03-29T07:19:49.630Z,29.8
2023-03-29T07:25:10.579Z,29
2023-03-29T07:31:30.795Z,28.6
2023-03-29T07:37:08.597Z,29.5
2023-03-29T07:42:44.883Z,43.2
2023-03-29T07:48:35.814Z,43.8
2023-03-29T07:54:27.541Z,43.1
2023-03-29T08:00:19.622Z,42.8
2023-03-29T08:06:12.312Z,44.6
2023-03-29T08:11:33.439Z,45.6
2023-03-29T08:17:11.283Z,44.5
2023-03-29T08:22:58.229Z,46.2
2023-03-29T08:28:50.227Z,47.3
2023-03-29T08:34:42.876Z,47.9
2023-03-29T08:40:19.311Z,48.5
2023-03-29T08:45:55.769Z,48.4
2023-03-29T08:51:22.902Z,49.3
2023-03-29T08:56:27.781Z,49.9
2023-03-29T09:02:04.122Z,50.6
2023-03-29T09:07:26.606Z,51.1
2023-03-29T09:13:03.336Z,51.7
2023-03-29T09:18:40.938Z,52.1
2023-03-29T09:24:18.350Z,52.6
2023-03-29T09:30:06.691Z,53
2023-03-29T09:35:12.560Z,53.6
2023-03-29T09:41:04.244Z,54.2
2023-03-29T09:46:49.647Z,54.5
2023-03-29T09:52:38.543Z,54.8
2023-03-29T09:58:16.088Z,55.4
2023-03-29T10:03:53.146Z,54.1
2023-03-29T10:09:32.509Z,54.7
2023-03-29T10:15:13.959Z,55.5
2023-03-29T10:20:59.418Z,55.9
2023-03-29T10:26:22.042Z,56.1
2023-03-29T10:31:59.110Z,56.8
2023-03-29T10:37:35.859Z,57.3
2023-03-29T10:43:11.508Z,57.6
2023-03-29T10:48:32.750Z,58.2
2023-03-29T10:54:09.463Z,58.8
2023-03-29T10:59:45.856Z,59.4
2023-03-29T11:05:08.240Z,59.8
2023-03-29T11:10:43.677Z,60.2
2023-03-29T11:16:32.594Z,60.6
2023-03-29T11:21:53.881Z,61
2023-03-29T11:27:15.156Z,61.3
2023-03-29T11:32:36.853Z,61.6
2023-03-29T11:38:13.576Z,61.9
2023-03-29T11:43:34.332Z,62.1
2023-03-29T11:49:11.365Z,62.3
2023-03-29T12:00:11.008Z,62.7
2023-03-29T12:05:49.759Z,62.9
2023-03-29T12:11:29.082Z,63
2023-03-29T12:16:49.700Z,63.1
2023-03-29T12:22:29.199Z,63.2
2023-03-29T12:28:05.956Z,63.3
2023-03-29T12:33:27.130Z,63.3
2023-03-29T12:39:19.610Z,63.3
2023-03-29T12:45:11.329Z,63.3
2023-03-29T12:51:04.523Z,63.1
2023-03-29T12:56:56.915Z,63.1
2023-03-29T13:02:34.233Z,62.9
2023-03-29T13:08:25.548Z,62.8
2023-03-29T13:14:17.300Z,62.1
2023-03-29T13:20:23.886Z,60.6
2023-03-29T13:26:15.002Z,59.8
2023-03-29T13:32:07.288Z,59.3
2023-03-29T13:37:43.848Z,58.7
2023-03-29T13:43:35.100Z,57.9
2023-03-29T13:49:42.547Z,57.3
2023-03-29T13:55:36.161Z,56.9
2023-03-29T14:01:28.968Z,56.5
2023-03-29T14:07:21.291Z,56
2023-03-29T14:13:13.192Z,55.4
2023-03-29T14:19:12.100Z,54.8
2023-03-29T14:25:04.176Z,54.1
2023-03-29T14:30:40.884Z,53.6
2023-03-29T14:36:32.588Z,53
2023-03-29T14:42:25.180Z,52.3
2023-03-29T14:48:17.718Z,49.8
2023-03-29T14:54:07.893Z,46
2023-03-29T15:00:00.532Z,42.8
2023-03-29T15:05:55.551Z,40.1
2023-03-29T15:11:56.334Z,37.6
2023-03-29T15:19:06.475Z,34.9
2023-03-29T15:24:41.527Z,32.9
2023-03-29T15:30:35.440Z,30.9
2023-03-29T15:36:44.575Z,28.8
2023-03-29T15:42:47.129Z,26.9
2023-03-29T15:48:38.605Z,25.1
2023-03-29T15:54:41.706Z,23.6
2023-03-29T16:00:34.117Z,22.3
2023-03-29T16:06:25.939Z,21.3
2023-03-29T16:12:03.926Z,20.4
2023-03-29T16:17:57.119Z,19.5
2023-03-29T16:23:47.897Z,18.6
2023-03-29T16:29:08.314Z,17.7
2023-03-29T16:35:01.500Z,16.8
2023-03-29T16:40:52.678Z,15.9
2023-03-29T16:46:29.786Z,15.1
2023-03-29T16:51:51.143Z,14.4
2023-03-29T16:57:42.184Z,13.7
2023-03-29T17:03:37.194Z,13
2023-03-29T17:09:29.895Z,12.4
2023-03-29T17:15:06.598Z,11.9
2023-03-29T17:20:58.744Z,11.3
2023-03-29T17:26:50.495Z,10.8
2023-03-29T17:32:41.957Z,10.4
2023-03-29T17:38:34.420Z,9.9
2023-03-29T17:44:26.942Z,9.4
2023-03-29T17:50:22.201Z,8.8
2023-03-29T17:56:14.134Z,8.3
2023-03-29T18:02:06.983Z,7.9
2023-03-29T18:07:58.605Z,7.6
2023-03-29T18:13:50.621Z,7.3
2023-03-29T18:19:42.802Z,6.9
2023-03-29T18:25:18.051Z,6.7
2023-03-29T18:30:54.583Z,6.4
2023-03-29T18:36:50.968Z,6.2
2023-03-29T18:42:42.484Z,5.9
2023-03-29T18:48:34.824Z,5.7
2023-03-29T18:54:28.864Z,5.5
2023-03-29T19:00:22.005Z,5.3
2023-03-29T19:05:59.699Z,5.1
2023-03-29T19:11:21.029Z,4.9
2023-03-29T19:17:12.936Z,4.7
2023-03-29T19:23:04.935Z,4.6
2023-03-29T19:28:57.250Z,4.4
2023-03-29T19:34:50.663Z,4.3
2023-03-29T19:40:11.364Z,4.1
2023-03-29T19:46:03.887Z,4
2023-03-29T19:52:02.485Z,3.9
2023-03-29T19:57:54.843Z,3.8
2023-03-29T20:03:32.126Z,3.7
2023-03-29T20:09:08.583Z,3.6
2023-03-29T20:15:19.184Z,3.6
2023-03-29T20:20:55.796Z,3.5
2023-03-29T20:26:47.370Z,3.4
2023-03-29T20:32:39.057Z,3.4
2023-03-29T20:38:31.962Z,3.4
2023-03-29T20:44:27.187Z,3.4
2023-03-29T20:50:19.069Z,3.3
2023-03-29T20:56:11.532Z,3.3
2023-03-29T21:02:02.557Z,3.3
2023-03-29T21:07:41.161Z,3.3
2023-03-29T21:13:35.059Z,3.3
2023-03-29T21:19:28.121Z,3.3
2023-03-29T21:25:03.049Z,3.3
2023-03-29T21:30:55.322Z,3.4
2023-03-29T21:36:47.849Z,3.4
2023-03-29T21:42:39.228Z,3.4
2023-03-29T21:48:31.736Z,3.5
2023-03-29T21:54:22.928Z,3.6
2023-03-29T21:59:43.213Z,3.6
2023-03-29T22:05:47.182Z,3.6
2023-03-29T22:11:39.030Z,3.6
2023-03-29T22:17:30.581Z,3.7
2023-03-29T22:23:23.032Z,3.7
2023-03-29T22:29:15.099Z,3.8
2023-03-29T22:35:07.142Z,3.8
2023-03-29T22:40:59.846Z,3.8
2023-03-29T22:46:52.108Z,3.9
2023-03-29T22:52:43.304Z,3.9
2023-03-29T22:58:20.096Z,4
2023-03-29T23:03:56.941Z,4.1
2023-03-29T23:09:47.907Z,4.1
2023-03-29T23:15:39.215Z,4.1
2023-03-29T23:21:14.981Z,4.2
2023-03-29T23:27:08.457Z,4.3
2023-03-29T23:33:00.431Z,4.3
2023-03-29T23:38:36.353Z,4.3
2023-03-29T23:44:28.552Z,4.4
2023-03-29T23:50:20.866Z,4.4
2023-03-29T23:56:11.638Z,4.4
